Hlavní strana
METAR-TAF:

METAR-TAF

Letiště :

Tan-Tan, Maroko

zeměpisná šířka: 28-26-54N, zeměpisná délka: 11-09-41W, výška: 199 m

Aktuální stav počasí

Zpráva byla vytvořena před 52 minutami, v 18:00 UTC
Západní vítr 8 kt
Teplota 16°C
Vlhkost vzduchu 77%
Tlak 1018 hPa
Viditelnost 10 km a více
Žádná oblačnost pod 1500 m, nevyskytují se cumulonimby.

METAR: GMAT 141800Z 28008KT CAVOK 16/12 Q1018 NOSIG

Čas: 19:52 (18:52 UTC)


TAF: chybějící

Stav a předpovědi počasí z více než 4 000 letišť (zprávy METAR a TAF).

Červené a žluté tečky na mapě představují dostupné meteorologické stanice.

Když kurzor umístíte na tečku, zobrazí se název stanice.

Pak kliknutím zobrazíte stav a předpověď počasí.

Chcete-li změnit mapu, kliknutím na zelené tlačítko se znaménkem +mapu přiblížíte, kliknutím na zelené tlačítko se znaménkem – mapu oddálíte a kliknutím na zelené šipky přejdete na sousední mapy.


METAR-TAF: